Time;durP1;ratioP1;P1;durP2;ratioP2;P2;SDS_P1;SDS_P2;PMS_P1;PMS_P2;Temp;Humidity;BMP_temperature;BMP_pressure;BME280_temperature;BME280_humidity;BME280_pressure;Samples;Min_cycle;Max_cycle;Signal;HPM_P1;HPM_P2
2022/05/12 00:09:40;;;;;;;6.60;3.70;;;;;;;25.11;40.54;100382.75;20418877;28;98639;-78
2022/05/12 00:19:40;;;;;;;4.53;3.07;;;;;;;25.15;40.46;100385.94;20360517;28;101359;-78
2022/05/12 00:29:42;;;;;;;5.53;3.37;;;;;;;25.10;40.61;100365.16;20359186;28;97787;-78
2022/05/12 00:39:42;;;;;;;4.83;3.60;;;;;;;25.17;40.36;100363.63;20354272;28;97156;-77
2022/05/12 00:49:46;;;;;;;5.72;3.20;;;;;;;25.13;40.67;100369.34;20360687;28;97132;-78
2022/05/12 00:59:47;;;;;;;4.80;3.33;;;;;;;25.16;40.18;100375.19;20361913;28;99204;-78
2022/05/12 01:09:48;;;;;;;6.00;3.88;;;;;;;25.14;40.39;100368.38;20378284;28;97706;-78
2022/05/12 01:19:51;;;;;;;3.43;3.13;;;;;;;25.13;40.71;100374.66;20369536;28;97408;-79
2022/05/12 01:29:55;;;;;;;4.75;3.40;;;;;;;25.08;40.70;100375.06;20375904;28;104964;-80
2022/05/12 01:39:57;;;;;;;3.90;3.22;;;;;;;25.03;40.93;100364.09;20372825;28;98872;-77
2022/05/12 01:49:57;;;;;;;5.97;3.38;;;;;;;24.98;40.98;100367.16;20355415;28;96948;-78
2022/05/12 01:59:58;;;;;;;4.40;3.35;;;;;;;25.03;40.85;100366.72;20365385;28;99061;-78
2022/05/12 02:09:58;;;;;;;4.00;3.22;;;;;;;24.95;41.44;100362.16;20383551;28;97087;-79
2022/05/12 02:19:59;;;;;;;4.50;3.10;;;;;;;24.92;41.02;100349.19;20371047;28;97353;-78
2022/05/12 02:30:00;;;;;;;3.43;3.10;;;;;;;24.92;41.10;100346.53;20372219;28;102042;-77
2022/05/12 02:40:01;;;;;;;5.27;3.23;;;;;;;24.90;41.09;100346.69;20362199;28;97575;-78
2022/05/12 02:50:02;;;;;;;5.97;3.97;;;;;;;24.89;41.09;100355.63;20366164;28;99002;-78
2022/05/12 03:00:05;;;;;;;3.70;3.30;;;;;;;24.89;41.20;100358.28;20363676;28;101333;-77
2022/05/12 03:10:07;;;;;;;4.60;3.40;;;;;;;24.99;40.99;100363.53;20367899;28;100246;-77
2022/05/12 03:20:11;;;;;;;6.20;3.35;;;;;;;25.00;40.94;100364.34;20355622;28;98386;-77
2022/05/12 03:30:18;;;;;;;3.55;3.17;;;;;;;25.01;40.80;100380.13;20351587;28;98244;-78
2022/05/12 03:40:19;;;;;;;3.28;2.83;;;;;;;24.99;41.11;100384.72;20365139;28;98129;-78
2022/05/12 03:50:23;;;;;;;6.22;3.17;;;;;;;24.98;40.86;100385.69;20367273;28;97368;-77
2022/05/12 04:00:27;;;;;;;5.88;3.35;;;;;;;25.00;41.12;100388.19;20350605;28;101152;-78
2022/05/12 04:10:29;;;;;;;4.40;3.05;;;;;;;24.97;41.07;100386.66;20356365;28;100912;-79
2022/05/12 04:20:32;;;;;;;7.43;3.50;;;;;;;24.93;41.09;100396.72;20353944;28;103064;-78
2022/05/12 04:30:32;;;;;;;20.02;4.60;;;;;;;24.97;41.49;100401.75;20343218;28;97905;-78
2022/05/12 04:40:33;;;;;;;18.58;6.43;;;;;;;24.99;41.01;100403.28;20383442;28;97836;-77
2022/05/12 04:50:37;;;;;;;19.13;5.57;;;;;;;24.99;40.90;100411.22;20364774;28;106612;-79
2022/05/12 05:00:40;;;;;;;14.13;6.03;;;;;;;24.72;38.63;100423.41;20370448;28;97777;-76
2022/05/12 05:10:41;;;;;;;12.00;5.85;;;;;;;24.37;38.89;100423.94;20374728;28;97250;-78
2022/05/12 05:20:43;;;;;;;15.38;4.82;;;;;;;24.53;40.10;100426.84;20391686;28;97448;-77
2022/05/12 05:30:45;;;;;;;11.75;4.80;;;;;;;24.60;40.48;100425.31;20394149;28;98013;-80
2022/05/12 05:40:47;;;;;;;;;;;;;;;24.62;40.02;100422.56;20369581;28;97223;-81
2022/05/12 06:01:07;;;;;;;9.23;4.38;;;;;;;24.60;39.63;100433.25;20389970;28;97729;-78
2022/05/12 06:11:09;;;;;;;6.50;4.22;;;;;;;24.65;39.42;100438.13;20373537;28;97089;-80
2022/05/12 06:21:12;;;;;;;;;;;;;;;24.65;39.43;100435.50;20371059;28;97401;-79
2022/05/12 06:31:24;;;;;;;8.63;4.25;;;;;;;24.66;39.56;100433.69;20384937;28;97019;-79
2022/05/12 06:41:26;;;;;;;;;;;;;;;24.67;39.50;100443.31;20397888;28;97018;-78
2022/05/12 06:51:27;;;;;;;6.00;4.47;;;;;;;24.66;39.46;100437.19;20402668;28;100782;-78
2022/05/12 07:01:27;;;;;;;5.30;4.30;;;;;;;24.67;39.23;100430.94;20398295;28;97508;-81
2022/05/12 07:11:28;;;;;;;11.18;5.07;;;;;;;24.69;39.49;100451.97;20445434;28;97324;-79
2022/05/12 07:31:55;;;;;;;11.82;4.53;;;;;;;24.74;39.51;100436.50;20524611;27;96505;-78
2022/05/12 07:41:57;;;;;;;8.53;4.30;;;;;;;24.77;40.01;100433.56;20500122;28;97266;-80
2022/05/12 07:51:59;;;;;;;13.93;4.80;;;;;;;24.78;40.02;100428.13;20456780;28;101254;-79
2022/05/12 08:02:00;;;;;;;11.30;5.15;;;;;;;24.65;38.85;100429.38;20480255;28;96844;-75
2022/05/12 08:12:01;;;;;;;10.80;5.50;;;;;;;24.50;39.23;100424.50;20504538;28;97315;-75
2022/05/12 08:22:01;;;;;;;10.40;5.20;;;;;;;24.49;39.85;100435.25;20539020;27;98742;-77
2022/05/12 08:32:01;;;;;;;13.40;4.80;;;;;;;24.55;40.40;100430.22;20550478;28;97687;-76
2022/05/12 08:42:18;;;;;;;16.27;5.50;;;;;;;24.54;40.14;100438.28;20508270;28;97227;-76
2022/05/12 08:52:27;;;;;;;11.68;4.65;;;;;;;24.61;39.94;100434.13;20493661;28;97721;-77
2022/05/12 09:02:33;;;;;;;8.07;4.82;;;;;;;24.70;40.03;100429.81;20492866;28;101084;-77
2022/05/12 09:12:51;;;;;;;10.52;4.95;;;;;;;24.75;40.47;100432.88;20501493;28;96828;-78
2022/05/12 09:22:51;;;;;;;9.18;4.97;;;;;;;24.79;40.54;100439.53;20495335;28;98349;-76
2022/05/12 09:32:58;;;;;;;8.85;5.00;;;;;;;24.84;40.87;100437.31;20490527;28;97799;-77
2022/05/12 09:43:01;;;;;;;11.38;5.15;;;;;;;24.90;41.06;100435.91;20498873;28;100356;-78
2022/05/12 09:53:06;;;;;;;14.38;5.13;;;;;;;24.97;39.98;100434.34;20485425;28;97115;-76
2022/05/12 10:13:56;;;;;;;9.63;5.07;;;;;;;25.08;40.46;100406.88;20483772;28;97789;-76
2022/05/12 10:24:15;;;;;;;13.20;4.80;;;;;;;25.21;40.42;100398.59;20482691;28;97727;-78
2022/05/12 10:34:40;;;;;;;6.55;4.15;;;;;;;25.35;40.46;100395.47;20510381;28;98554;-77
2022/05/12 10:45:01;;;;;;;9.02;4.20;;;;;;;25.48;39.73;100387.22;20489773;28;96915;-78
2022/05/12 10:55:09;;;;;;;6.77;4.33;;;;;;;25.61;39.67;100389.53;20472279;28;97505;-77
2022/05/12 11:05:25;;;;;;;9.43;4.82;;;;;;;25.71;40.09;100384.97;20467963;28;98992;-78
2022/05/12 11:15:56;;;;;;;12.18;4.20;;;;;;;26.15;39.46;100356.94;20480594;28;97341;-76
2022/05/12 11:26:22;;;;;;;11.13;4.85;;;;;;;26.53;38.28;100353.06;20451504;28;97011;-76
2022/05/12 11:36:37;;;;;;;6.60;4.00;;;;;;;26.90;38.44;100329.09;20469183;28;97699;-77
2022/05/12 11:47:01;;;;;;;8.95;4.07;;;;;;;26.77;38.90;100332.16;20466674;28;97812;-77
2022/05/12 11:57:24;;;;;;;9.88;4.47;;;;;;;26.81;39.14;100333.53;20398372;28;97847;-76
2022/05/12 12:07:30;;;;;;;6.05;3.78;;;;;;;26.83;40.00;100323.56;20444942;28;97808;-77
2022/05/12 12:17:35;;;;;;;6.68;3.60;;;;;;;26.83;39.73;100316.44;20496646;28;96933;-78
2022/05/12 12:27:51;;;;;;;12.25;3.83;;;;;;;26.86;38.79;100317.13;20485213;28;97755;-77
2022/05/12 12:37:52;;;;;;;7.25;3.40;;;;;;;26.88;37.77;100312.47;20485893;28;97159;-77
2022/05/12 12:48:01;;;;;;;;;;;;;;;26.95;35.96;100308.19;20481356;28;97668;-77
2022/05/12 12:58:03;;;;;;;5.03;2.50;;;;;;;26.97;35.61;100291.09;20457864;28;97843;-79
2022/05/12 13:08:05;;;;;;;5.40;2.30;;;;;;;27.00;35.68;100280.16;20468469;28;97716;-79
2022/05/12 13:18:09;;;;;;;5.35;2.35;;;;;;;27.11;35.03;100275.53;20465017;28;97184;-77
2022/05/12 13:28:19;;;;;;;5.80;2.20;;;;;;;27.15;35.15;100277.72;20499671;28;97169;-81
2022/05/12 13:38:20;;;;;;;4.28;2.60;;;;;;;27.17;35.50;100277.53;20479323;28;96951;-78
2022/05/12 13:48:22;;;;;;;7.13;2.85;;;;;;;27.34;34.81;100267.78;20448722;28;97634;-77
2022/05/12 13:58:22;;;;;;;10.07;3.10;;;;;;;27.61;33.95;100248.09;20450396;28;98839;-76
2022/05/12 14:08:33;;;;;;;11.07;3.03;;;;;;;27.77;33.06;100259.72;20469641;28;97097;-77
2022/05/12 14:28:54;;;;;;;4.53;3.35;;;;;;;27.55;33.65;100242.59;20460395;28;97022;-77
2022/05/12 14:38:54;;;;;;;5.32;2.63;;;;;;;27.42;34.10;100233.28;20456575;28;97101;-76
2022/05/12 14:48:57;;;;;;;3.13;2.57;;;;;;;27.35;35.11;100226.09;20443585;28;98589;-75
2022/05/12 14:58:59;;;;;;;3.00;2.50;;;;;;;27.28;35.37;100225.91;20461893;28;97513;-76
2022/05/12 15:09:00;;;;;;;3.65;2.70;;;;;;;27.24;35.19;100217.41;20458160;28;97009;-77
2022/05/12 15:19:00;;;;;;;;;;;;;;;27.28;34.71;100220.59;20465215;28;97186;-77
2022/05/12 15:29:03;;;;;;;3.80;2.63;;;;;;;27.29;33.94;100214.28;20460678;28;98312;-77
2022/05/12 15:39:06;;;;;;;4.75;2.50;;;;;;;27.29;32.81;100214.28;20446265;28;99807;-76
2022/05/12 15:49:17;;;;;;;3.67;2.50;;;;;;;27.30;33.30;100213.28;20449045;28;98906;-76
2022/05/12 15:59:19;;;;;;;4.57;2.63;;;;;;;27.31;33.43;100207.78;20459783;28;97556;-76
2022/05/12 16:09:19;;;;;;;3.17;2.65;;;;;;;27.30;34.05;100206.13;20468435;28;97014;-76
2022/05/12 16:19:21;;;;;;;7.50;2.77;;;;;;;27.30;34.70;100210.63;20472339;28;97289;-76
2022/05/12 16:29:53;;;;;;;6.03;3.63;;;;;;;27.31;35.77;100215.78;20496225;28;100846;-77
2022/05/12 16:39:54;;;;;;;7.47;3.75;;;;;;;27.28;36.25;100225.91;20445685;28;97520;-76
2022/05/12 16:49:55;;;;;;;5.50;3.33;;;;;;;27.22;35.63;100221.25;20472680;28;97120;-75
2022/05/12 16:59:59;;;;;;;7.30;3.38;;;;;;;27.19;36.84;100211.78;20457062;28;96968;-76
2022/05/12 17:10:00;;;;;;;7.93;3.40;;;;;;;27.20;37.10;100226.72;20449978;28;98749;-76
2022/05/12 17:20:02;;;;;;;5.53;3.30;;;;;;;27.19;37.62;100233.03;20486523;28;97260;-78
2022/05/12 17:30:05;;;;;;;5.50;3.60;;;;;;;27.15;37.90;100237.84;20455242;28;97645;-77
2022/05/12 17:40:12;;;;;;;5.18;3.55;;;;;;;27.07;38.12;100240.47;20451918;28;97756;-76
2022/05/12 17:50:13;;;;;;;6.00;3.55;;;;;;;27.08;38.14;100236.00;20449624;28;98968;-74
2022/05/12 18:00:17;;;;;;;8.73;3.87;;;;;;;27.00;37.43;100248.25;20444667;28;97863;-72
2022/05/12 18:10:17;;;;;;;8.88;6.07;;;;;;;26.97;38.29;100263.69;20442997;28;100807;-75
2022/05/12 18:20:19;;;;;;;6.85;5.05;;;;;;;26.91;37.43;100272.31;20435631;28;97853;-75
2022/05/12 18:30:21;;;;;;;45.92;32.63;;;;;;;26.86;37.42;100296.69;20468194;28;97468;-76
2022/05/12 18:40:22;;;;;;;;;;;;;;;26.76;37.54;100314.59;20470095;28;97544;-77
2022/05/12 18:50:23;;;;;;;12.30;6.37;;;;;;;26.71;38.04;100332.75;20474365;28;98258;-76
2022/05/12 19:00:28;;;;;;;10.85;8.45;;;;;;;26.59;38.34;100348.97;20479178;28;99114;-77
2022/05/12 19:10:28;;;;;;;8.48;5.07;;;;;;;26.51;38.26;100360.38;20485146;28;97670;-78
2022/05/12 19:20:33;;;;;;;13.80;5.40;;;;;;;26.47;38.91;100376.75;20480934;28;100980;-80
2022/05/12 19:30:38;;;;;;;12.32;4.97;;;;;;;26.40;38.78;100365.91;20475624;28;97837;-80
2022/05/12 19:40:45;;;;;;;13.40;5.55;;;;;;;26.54;39.43;100383.13;20483403;28;98568;-80
2022/05/12 19:50:46;;;;;;;13.43;5.88;;;;;;;26.60;39.59;100381.66;20462238;28;98247;-79
2022/05/12 20:00:48;;;;;;;11.85;5.35;;;;;;;26.59;39.85;100393.28;20449039;28;97816;-80
2022/05/12 20:10:48;;;;;;;15.60;5.50;;;;;;;26.61;39.76;100401.91;20475261;28;98040;-79
2022/05/12 20:20:51;;;;;;;6.95;4.88;;;;;;;26.60;40.12;100397.59;20472720;28;97114;-80
2022/05/12 20:30:52;;;;;;;6.25;4.90;;;;;;;26.58;39.98;100381.81;20468885;28;98392;-81
2022/05/12 20:40:55;;;;;;;7.35;4.85;;;;;;;26.48;40.81;100387.22;20472061;28;97885;-80
2022/05/12 20:50:57;;;;;;;7.00;5.00;;;;;;;26.43;41.14;100386.03;20479258;28;98075;-79
2022/05/12 21:00:58;;;;;;;;;;;;;;;26.44;41.19;100382.38;20462691;28;98977;-80
2022/05/12 21:10:59;;;;;;;;;;;;;;;26.41;41.57;100390.66;20480766;28;97086;-80
2022/05/12 21:21:00;;;;;;;6.33;4.57;;;;;;;26.42;41.45;100397.63;20480943;28;97683;-80
2022/05/12 21:31:00;;;;;;;5.60;4.20;;;;;;;26.37;41.04;100404.22;20499723;28;100078;-80
2022/05/12 21:41:01;;;;;;;7.30;4.85;;;;;;;26.37;40.79;100401.56;20513544;27;97999;-81
2022/05/12 21:51:11;;;;;;;5.13;4.63;;;;;;;26.35;41.00;100392.09;20478585;28;97816;-80
2022/05/12 22:01:27;;;;;;;4.73;4.23;;;;;;;26.33;41.91;100399.38;20478062;28;98304;-80
2022/05/12 22:21:49;;;;;;;5.03;4.53;;;;;;;26.28;42.01;100426.38;20476815;27;98504;-81
2022/05/12 22:31:51;;;;;;;5.00;4.38;;;;;;;26.21;42.04;100402.25;20465321;28;98191;-79
2022/05/12 22:41:52;;;;;;;8.43;4.15;;;;;;;26.20;41.79;100395.28;20470264;28;96847;-79
2022/05/12 22:51:52;;;;;;;7.43;4.47;;;;;;;26.20;42.10;100395.28;20474500;28;97043;-79
2022/05/12 23:01:53;;;;;;;5.60;4.25;;;;;;;26.16;42.63;100390.44;20488803;28;96957;-79
2022/05/12 23:11:53;;;;;;;7.23;4.23;;;;;;;26.13;42.54;100386.25;20463924;28;97772;-79
2022/05/12 23:21:54;;;;;;;5.63;3.97;;;;;;;26.11;42.28;100374.13;20466813;28;100666;-80
2022/05/12 23:31:55;;;;;;;6.80;3.80;;;;;;;26.11;42.40;100374.97;20468876;28;100326;-80
2022/05/12 23:41:57;;;;;;;;;;;;;;;26.11;42.39;100360.84;20468842;28;98203;-81
2022/05/12 23:51:58;;;;;;;5.17;3.73;;;;;;;26.11;41.80;100342.28;20466386;28;96980;-80
